Time;durP1;ratioP1;P1;durP2;ratioP2;P2;SDS_P1;SDS_P2;PMS_P1;PMS_P2;Temp;Humidity;BMP_temperature;BMP_pressure;BME280_temperature;BME280_humidity;BME280_pressure;Samples;Min_cycle;Max_cycle;Signal;HPM_P1;HPM_P2
2024/01/12 00:00:06;;;;;;;85.10;38.30;;;-4.20;99.20;;;;;;5058693;28;20034;-93
2024/01/12 00:02:32;;;;;;;84.50;37.45;;;-4.20;99.00;;;;;;5062754;28;20026;-92
2024/01/12 00:04:59;;;;;;;78.47;41.72;;;-4.10;98.80;;;;;;5049549;28;20508;-90
2024/01/12 00:07:26;;;;;;;78.57;39.45;;;-4.20;98.50;;;;;;5048641;28;20092;-90
2024/01/12 00:09:53;;;;;;;68.95;36.70;;;-4.20;98.20;;;;;;5043566;28;20053;-91
2024/01/12 00:12:24;;;;;;;74.25;35.60;;;-4.10;98.10;;;;;;5051361;28;20088;-89
2024/01/12 00:14:56;;;;;;;92.85;41.08;;;-4.10;97.90;;;;;;5052258;28;20049;-92
2024/01/12 00:17:22;;;;;;;80.80;35.13;;;-4.10;97.70;;;;;;5053905;28;20049;-91
2024/01/12 00:19:48;;;;;;;78.30;38.88;;;-4.10;97.50;;;;;;5052820;28;20033;-91
2024/01/12 00:22:16;;;;;;;74.28;36.22;;;-4.10;97.40;;;;;;5053764;28;20085;-91
2024/01/12 00:24:41;;;;;;;73.30;35.80;;;-4.10;97.20;;;;;;5052077;28;20048;-90
2024/01/12 00:27:09;;;;;;;76.28;35.95;;;-4.10;96.90;;;;;;5053161;28;20030;-90
2024/01/12 00:29:42;;;;;;;71.43;32.70;;;-4.10;96.80;;;;;;5052465;28;20036;-91
2024/01/12 00:32:11;;;;;;;85.95;38.28;;;-4.10;97.00;;;;;;5053621;28;20040;-91
2024/01/12 00:34:38;;;;;;;77.03;37.33;;;-4.20;96.40;;;;;;5061615;28;20028;-91
2024/01/12 00:37:07;;;;;;;79.93;41.47;;;-4.20;96.20;;;;;;5068560;28;20029;-91
2024/01/12 00:39:42;;;;;;;80.90;41.83;;;-4.40;96.80;;;;;;5046007;28;20040;-91
2024/01/12 00:42:09;;;;;;;78.35;39.67;;;-4.50;97.30;;;;;;5054583;28;20044;-90
2024/01/12 00:44:36;;;;;;;86.22;41.42;;;-4.50;98.00;;;;;;5032377;28;20045;-90
2024/01/12 00:47:22;;;;;;;81.55;36.85;;;-4.50;98.10;;;;;;5049064;28;20026;-93
2024/01/12 00:49:51;;;;;;;73.97;35.63;;;-4.50;98.50;;;;;;5049399;28;20036;-92
2024/01/12 00:52:20;;;;;;;74.45;36.33;;;-4.50;98.60;;;;;;5034211;28;20056;-91
2024/01/12 00:54:46;;;;;;;73.35;37.53;;;-4.50;98.60;;;;;;5049863;28;20030;-92
2024/01/12 00:57:15;;;;;;;78.72;36.50;;;-4.60;98.60;;;;;;5065720;28;20053;-91
2024/01/12 00:59:44;;;;;;;71.30;33.83;;;-4.50;98.60;;;;;;5054356;28;20064;-93
2024/01/12 01:02:13;;;;;;;70.50;34.13;;;-4.50;98.60;;;;;;5027121;28;20037;-90
2024/01/12 01:04:42;;;;;;;75.82;35.88;;;-4.40;98.30;;;;;;5036826;28;20029;-90
2024/01/12 01:07:08;;;;;;;71.05;34.65;;;-4.50;98.40;;;;;;5026111;28;20025;-91
2024/01/12 01:09:40;;;;;;;65.40;32.80;;;-4.50;98.20;;;;;;5028202;28;20057;-91
2024/01/12 01:12:06;;;;;;;73.78;33.63;;;-4.50;98.30;;;;;;5030976;28;20025;-94
2024/01/12 01:14:32;;;;;;;68.63;35.00;;;-4.50;98.30;;;;;;5032083;28;20018;-89
2024/01/12 01:17:00;;;;;;;71.18;31.63;;;-4.50;98.20;;;;;;5059206;28;20025;-91
2024/01/12 01:19:34;;;;;;;66.30;32.50;;;-4.60;98.20;;;;;;5041602;28;20045;-90
2024/01/12 01:22:00;;;;;;;66.55;32.97;;;-4.60;98.60;;;;;;5037050;28;20012;-91
2024/01/12 01:24:29;;;;;;;76.70;36.85;;;-4.70;98.90;;;;;;5047634;28;20021;-91
2024/01/12 01:26:55;;;;;;;70.78;36.05;;;-4.70;99.50;;;;;;5037241;28;20029;-90
2024/01/12 01:29:23;;;;;;;69.25;35.42;;;-4.80;99.70;;;;;;5053220;28;20109;-92
2024/01/12 01:31:50;;;;;;;74.35;35.25;;;-4.80;99.90;;;;;;5035566;28;20042;-92
2024/01/12 01:34:19;;;;;;;69.78;31.95;;;-4.90;99.90;;;;;;5040167;28;20107;-92
2024/01/12 01:36:45;;;;;;;65.72;33.50;;;-4.80;99.90;;;;;;5037949;28;20376;-92
2024/01/12 01:39:12;;;;;;;73.65;33.53;;;-4.90;99.90;;;;;;5047988;28;20028;-90
2024/01/12 01:41:38;;;;;;;69.65;32.25;;;-4.90;99.90;;;;;;5035854;28;20029;-91
2024/01/12 01:44:04;;;;;;;67.82;33.13;;;-4.80;99.90;;;;;;5028355;28;20022;-90
2024/01/12 01:46:30;;;;;;;72.70;32.13;;;-4.90;99.90;;;;;;5024492;28;20047;-88
2024/01/12 01:49:08;;;;;;;66.25;32.33;;;-4.80;99.90;;;;;;5041494;28;20037;-89
2024/01/12 01:51:37;;;;;;;71.07;32.80;;;-4.90;99.90;;;;;;5025189;28;20025;-87
2024/01/12 01:54:07;;;;;;;75.00;32.17;;;-4.90;99.90;;;;;;5048752;28;20104;-87
2024/01/12 01:56:44;;;;;;;61.17;32.10;;;-4.90;99.90;;;;;;5047944;28;20091;-88
2024/01/12 01:59:14;;;;;;;67.38;31.83;;;-4.90;99.90;;;;;;5031642;28;20058;-90
2024/01/12 02:01:40;;;;;;;68.95;31.77;;;-4.90;99.90;;;;;;5050164;28;20068;-88
2024/01/12 02:04:13;;;;;;;70.03;30.98;;;-4.90;99.90;;;;;;5031691;28;20026;-90
2024/01/12 02:06:40;;;;;;;59.88;31.48;;;-4.90;99.90;;;;;;5034618;28;20029;-88
2024/01/12 02:09:12;;;;;;;60.83;31.77;;;-4.90;99.90;;;;;;5049819;28;20479;-88
2024/01/12 02:11:38;;;;;;;59.63;31.88;;;-5.00;99.90;;;;;;5034150;28;20097;-87
2024/01/12 02:14:42;;;;;;;58.85;33.08;;;-5.00;99.90;;;;;;5048476;28;20021;-87
2024/01/12 02:20:30;;;;;;;62.25;32.28;;;-5.00;99.90;;;;;;5048164;28;20041;-88
2024/01/12 02:23:02;;;;;;;56.67;31.25;;;-5.10;99.90;;;;;;5020179;28;20029;-89
2024/01/12 02:25:31;;;;;;;58.03;29.08;;;-5.10;99.90;;;;;;5016779;28;20053;-89
2024/01/12 02:27:59;;;;;;;55.95;29.10;;;-5.10;99.90;;;;;;5023090;28;20026;-89
2024/01/12 02:30:25;;;;;;;66.70;31.92;;;-5.20;99.90;;;;;;5038171;28;20366;-91
2024/01/12 02:32:51;;;;;;;58.00;29.73;;;-5.10;99.90;;;;;;5024827;28;20040;-91
2024/01/12 02:35:17;;;;;;;61.53;30.08;;;-5.10;99.90;;;;;;5053784;28;20491;-93
2024/01/12 02:37:43;;;;;;;61.10;30.67;;;-5.20;99.90;;;;;;5018226;28;20028;-92
2024/01/12 02:40:12;;;;;;;54.20;29.83;;;-5.10;99.90;;;;;;5038372;28;20117;-91
2024/01/12 02:45:54;;;;;;;60.80;29.02;;;-5.10;99.90;;;;;;5032318;28;20124;-89
2024/01/12 02:48:19;;;;;;;56.90;29.70;;;-5.10;99.90;;;;;;5043034;28;20072;-91
2024/01/12 02:50:45;;;;;;;50.97;31.40;;;-5.10;99.90;;;;;;5032946;28;20026;-91
2024/01/12 02:53:11;;;;;;;61.28;31.52;;;-5.10;99.90;;;;;;5025100;28;20030;-89
2024/01/12 02:55:37;;;;;;;60.28;31.30;;;-5.10;99.90;;;;;;5024673;28;20025;-91
2024/01/12 02:58:03;;;;;;;60.03;28.00;;;-5.10;99.90;;;;;;5040029;28;20018;-92
2024/01/12 03:00:30;;;;;;;58.70;27.95;;;-5.10;99.90;;;;;;5036015;28;20028;-91
2024/01/12 03:02:59;;;;;;;57.35;30.30;;;-5.00;99.90;;;;;;5042586;28;20028;-89
2024/01/12 03:09:11;;;;;;;55.88;27.48;;;-5.00;99.90;;;;;;4964212;28;20086;-92
2024/01/12 03:12:25;;;;;;;;;;;;;;;;;;;;;
2024/01/12 03:21:28;;;;;;;58.38;29.00;;;-4.90;99.90;;;;;;5225521;22;20044;-92
2024/01/12 03:23:57;;;;;;;64.03;29.35;;;-4.90;99.90;;;;;;5089602;28;20111;-91
2024/01/12 03:26:23;;;;;;;64.82;30.05;;;-4.90;99.90;;;;;;5063476;28;20035;-91
2024/01/12 03:28:49;;;;;;;49.45;27.00;;;-4.90;99.90;;;;;;5062488;28;20028;-91
2024/01/12 03:31:17;;;;;;;66.80;32.58;;;-5.00;99.90;;;;;;5080970;28;20102;-92
2024/01/12 03:33:43;;;;;;;56.13;29.27;;;-4.90;99.90;;;;;;5079227;28;20028;-91
2024/01/12 03:36:13;;;;;;;65.90;32.42;;;-5.00;99.90;;;;;;5071974;28;20123;-90
2024/01/12 03:38:39;;;;;;;61.75;28.65;;;-5.00;99.90;;;;;;5069764;28;20031;-90
2024/01/12 03:41:08;;;;;;;60.05;29.40;;;-5.00;99.90;;;;;;5079720;28;20024;-91
2024/01/12 03:43:34;;;;;;;67.20;30.90;;;-5.00;99.90;;;;;;5074935;28;20020;-91
2024/01/12 03:46:00;;;;;;;65.82;30.05;;;-5.00;99.90;;;;;;5064714;28;20334;-90
2024/01/12 03:48:26;;;;;;;64.82;27.38;;;-5.00;99.90;;;;;;5086182;28;20025;-91
2024/01/12 03:50:55;;;;;;;64.07;33.53;;;-5.10;99.90;;;;;;5086127;28;20025;-91
2024/01/12 03:53:21;;;;;;;62.10;32.67;;;-5.10;99.90;;;;;;5082729;28;20067;-92
2024/01/12 03:55:50;;;;;;;61.60;29.90;;;-5.10;99.90;;;;;;5086940;28;20036;-91
2024/01/12 03:58:16;;;;;;;54.53;28.55;;;-5.10;99.90;;;;;;5076550;28;20027;-91
2024/01/12 04:00:49;;;;;;;59.97;32.75;;;-5.20;99.90;;;;;;5085451;28;20087;-91
2024/01/12 04:03:15;;;;;;;58.85;33.05;;;-5.20;99.90;;;;;;5085282;28;20078;-91
2024/01/12 04:05:47;;;;;;;67.30;31.48;;;-5.20;99.90;;;;;;5078344;28;20021;-89
2024/01/12 04:08:13;;;;;;;62.83;32.15;;;-5.30;99.90;;;;;;5070043;28;20054;-90
2024/01/12 04:10:39;;;;;;;65.53;30.20;;;-5.30;99.90;;;;;;5083550;28;20036;-91
2024/01/12 04:13:05;;;;;;;71.40;28.42;;;-5.30;99.90;;;;;;5087723;28;20394;-90
2024/01/12 04:15:31;;;;;;;60.08;30.38;;;-5.20;99.90;;;;;;5085849;28;20016;-90
2024/01/12 04:17:57;;;;;;;67.03;33.20;;;-5.20;99.90;;;;;;5086677;28;20483;-91
2024/01/12 04:20:23;;;;;;;63.50;30.15;;;-5.30;99.90;;;;;;5076235;28;20029;-91
2024/01/12 04:22:48;;;;;;;64.57;31.88;;;-5.30;99.90;;;;;;5064558;28;20036;-90
2024/01/12 04:25:26;;;;;;;59.75;30.67;;;-5.40;99.90;;;;;;5067842;28;20033;-91
2024/01/12 04:27:52;;;;;;;59.10;29.45;;;-5.40;99.90;;;;;;5082663;28;20518;-91
2024/01/12 04:30:23;;;;;;;58.67;31.27;;;-5.50;99.90;;;;;;5077921;28;20035;-91
2024/01/12 04:32:49;;;;;;;54.63;29.48;;;-5.50;99.90;;;;;;5081626;28;20116;-91
2024/01/12 04:35:15;;;;;;;62.75;33.17;;;-5.50;99.90;;;;;;5085836;28;20021;-91
2024/01/12 04:37:40;;;;;;;64.40;29.92;;;-5.50;99.90;;;;;;5082447;28;20048;-90
2024/01/12 04:40:07;;;;;;;70.57;33.72;;;-5.50;99.90;;;;;;5082118;28;20025;-90
2024/01/12 04:42:38;;;;;;;58.97;30.95;;;-5.50;99.90;;;;;;5074758;28;20058;-90
2024/01/12 04:45:05;;;;;;;64.97;32.03;;;-5.50;99.90;;;;;;5077308;28;20040;-91
2024/01/12 04:47:39;;;;;;;59.47;30.35;;;-5.50;99.90;;;;;;5073663;28;20044;-95
2024/01/12 04:50:05;;;;;;;74.57;32.38;;;-5.60;99.90;;;;;;5083246;28;20028;-91
2024/01/12 04:52:31;;;;;;;64.38;31.83;;;-5.50;99.90;;;;;;5086138;28;20025;-92
2024/01/12 04:55:00;;;;;;;67.80;30.90;;;-5.60;99.90;;;;;;5089771;28;20039;-91
2024/01/12 04:57:26;;;;;;;55.88;31.42;;;-5.50;99.90;;;;;;5091134;28;20051;-91
2024/01/12 05:00:08;;;;;;;67.75;33.58;;;-5.60;99.90;;;;;;5093010;28;20024;-92
2024/01/12 05:02:37;;;;;;;63.85;32.28;;;-5.60;99.90;;;;;;5097248;28;20004;-93
2024/01/12 05:05:04;;;;;;;62.88;32.13;;;-5.60;99.90;;;;;;5089603;28;20038;-92
2024/01/12 05:07:30;;;;;;;68.90;32.50;;;-5.50;99.90;;;;;;5084184;28;20131;-91
2024/01/12 05:09:56;;;;;;;72.03;33.33;;;-5.60;99.90;;;;;;5084895;28;20503;-91
2024/01/12 05:12:22;;;;;;;59.63;31.30;;;-5.50;99.90;;;;;;5082074;28;20067;-92
2024/01/12 05:14:48;;;;;;;65.90;34.88;;;-5.60;99.90;;;;;;5079969;28;20024;-92
2024/01/12 05:17:17;;;;;;;64.72;31.17;;;-5.60;99.90;;;;;;5080726;28;20031;-93
2024/01/12 05:19:42;;;;;;;67.90;31.48;;;-5.60;99.90;;;;;;5081108;28;20483;-92
2024/01/12 05:22:08;;;;;;;71.50;33.42;;;-5.60;99.90;;;;;;5082002;28;20115;-92
2024/01/12 05:24:34;;;;;;;64.68;33.05;;;-5.60;99.90;;;;;;5081493;28;20478;-92
2024/01/12 05:27:00;;;;;;;69.07;35.85;;;-5.60;99.90;;;;;;5081351;28;20029;-91
2024/01/12 05:29:26;;;;;;;75.70;35.85;;;-5.70;99.90;;;;;;5082203;28;20025;-92
2024/01/12 05:31:52;;;;;;;59.92;31.90;;;-5.70;99.90;;;;;;5073871;28;20036;-91
2024/01/12 05:34:18;;;;;;;59.78;32.00;;;-5.70;99.90;;;;;;5075044;28;20033;-91
2024/01/12 05:36:47;;;;;;;72.35;36.38;;;-5.80;99.90;;;;;;5079097;28;20478;-92
2024/01/12 05:39:12;;;;;;;67.05;33.90;;;-5.80;99.90;;;;;;5081626;28;20533;-93
2024/01/12 05:41:40;;;;;;;67.93;34.30;;;-5.70;99.90;;;;;;5078063;28;20013;-92
2024/01/12 05:44:06;;;;;;;70.97;32.17;;;-5.70;99.90;;;;;;5061491;28;20036;-91
2024/01/12 05:46:32;;;;;;;71.93;35.83;;;-5.70;99.90;;;;;;5060363;28;20017;-91
2024/01/12 05:49:00;;;;;;;57.83;30.77;;;-5.70;99.90;;;;;;5070409;28;20035;-91
2024/01/12 05:51:27;;;;;;;71.60;32.10;;;-5.60;99.90;;;;;;5060070;28;20021;-92
2024/01/12 05:53:53;;;;;;;63.10;30.33;;;-5.60;99.90;;;;;;5060641;28;20025;-91
2024/01/12 05:56:19;;;;;;;60.85;31.50;;;-5.60;99.90;;;;;;5060157;28;20087;-92
2024/01/12 05:58:45;;;;;;;66.80;35.30;;;-5.70;99.90;;;;;;5060222;28;20025;-91
2024/01/12 06:01:11;;;;;;;63.67;29.25;;;-5.70;99.90;;;;;;5070847;28;20429;-91
2024/01/12 06:03:37;;;;;;;69.32;33.70;;;-5.70;99.90;;;;;;5080503;28;20025;-93
2024/01/12 06:06:03;;;;;;;64.75;32.55;;;-5.80;99.90;;;;;;5084021;28;20032;-92
2024/01/12 06:08:29;;;;;;;64.07;32.95;;;-5.80;99.90;;;;;;5082064;28;20722;-90
2024/01/12 06:10:55;;;;;;;72.38;33.38;;;-5.90;99.90;;;;;;5065229;28;20028;-93
2024/01/12 06:13:20;;;;;;;67.57;35.92;;;-5.90;99.90;;;;;;5075892;28;20032;-92
2024/01/12 06:15:46;;;;;;;65.90;32.60;;;-5.90;99.90;;;;;;5079391;28;20024;-92
2024/01/12 06:18:12;;;;;;;61.08;32.83;;;-5.90;99.90;;;;;;5067466;28;20029;-91
2024/01/12 06:20:39;;;;;;;72.00;32.90;;;-5.90;99.90;;;;;;5060817;28;20037;-92
2024/01/12 06:23:05;;;;;;;63.88;31.33;;;-5.90;99.90;;;;;;5067343;28;20032;-92
2024/01/12 06:25:36;;;;;;;65.32;32.15;;;-5.90;99.90;;;;;;5061048;28;20722;-93
2024/01/12 06:28:02;;;;;;;64.03;32.17;;;-5.90;99.90;;;;;;5074059;28;20478;-92
2024/01/12 06:30:31;;;;;;;64.13;34.13;;;-5.90;99.90;;;;;;5078864;28;20119;-93
2024/01/12 06:32:58;;;;;;;;;;;-5.90;99.90;;;;;;5080999;28;20111;-92
2024/01/12 06:35:25;;;;;;;58.95;30.77;;;-5.90;99.90;;;;;;5082823;28;19936;-91
2024/01/12 06:37:50;;;;;;;70.40;34.60;;;-5.90;99.90;;;;;;5084199;28;20017;-92
2024/01/12 06:40:23;;;;;;;62.45;31.25;;;-5.80;99.90;;;;;;5077677;28;20028;-92
2024/01/12 06:42:49;;;;;;;76.13;34.17;;;-5.90;99.90;;;;;;5061165;28;20483;-91
2024/01/12 06:45:19;;;;;;;81.90;33.40;;;-5.90;99.90;;;;;;5062097;28;20033;-91
2024/01/12 06:47:51;;;;;;;89.20;36.65;;;-5.90;99.90;;;;;;5064891;28;20096;-91
2024/01/12 06:50:20;;;;;;;75.82;35.17;;;-5.90;99.90;;;;;;5066119;28;20056;-93
2024/01/12 06:52:48;;;;;;;72.13;34.60;;;-5.90;99.90;;;;;;5083807;28;20025;-92
2024/01/12 06:55:17;;;;;;;73.50;34.83;;;-5.90;99.90;;;;;;5072498;28;20025;-93
2024/01/12 06:57:55;;;;;;;74.15;36.97;;;-5.80;99.90;;;;;;5082393;28;20034;-93
2024/01/12 07:00:23;;;;;;;66.65;35.53;;;-5.70;99.90;;;;;;5071258;28;20052;-93
2024/01/12 07:02:49;;;;;;;75.22;36.42;;;-5.80;99.90;;;;;;5069463;28;20077;-93
2024/01/12 07:05:20;;;;;;;76.75;35.05;;;-5.70;99.90;;;;;;5071851;28;20088;-93
2024/01/12 07:07:49;;;;;;;78.30;38.58;;;-5.70;99.90;;;;;;5085328;28;20013;-96
2024/01/12 07:10:14;;;;;;;72.25;38.63;;;-5.60;99.90;;;;;;5097827;22;20577;-92
2024/01/12 07:12:51;;;;;;;73.53;34.92;;;-5.70;99.90;;;;;;5047130;28;20100;-93
2024/01/12 07:15:40;;;;;;;98.63;57.83;;;-5.70;99.90;;;;;;5060507;28;20033;-93
2024/01/12 07:18:19;;;;;;;82.22;39.47;;;-5.60;99.90;;;;;;5040715;28;20013;-92
2024/01/12 07:20:51;;;;;;;78.18;36.75;;;-5.60;99.90;;;;;;5051705;28;20028;-92
2024/01/12 07:23:19;;;;;;;73.32;34.88;;;-5.60;99.90;;;;;;5034774;28;20044;-92
2024/01/12 07:25:48;;;;;;;81.50;38.58;;;-5.60;99.90;;;;;;5034594;28;20122;-93
2024/01/12 07:28:16;;;;;;;87.50;38.88;;;-5.60;99.90;;;;;;5050245;28;20032;-93
2024/01/12 07:30:55;;;;;;;85.85;40.88;;;-5.60;99.90;;;;;;5057450;28;20082;-93
2024/01/12 07:33:21;;;;;;;79.90;38.33;;;-5.60;99.90;;;;;;5060088;28;20032;-93
2024/01/12 07:35:50;;;;;;;94.38;38.88;;;-5.60;99.90;;;;;;5071311;28;20121;-93
2024/01/12 07:38:18;;;;;;;85.93;39.35;;;-5.60;99.90;;;;;;5042476;28;20032;-92
2024/01/12 07:40:47;;;;;;;89.35;42.65;;;-5.60;99.90;;;;;;5047804;28;20111;-93
2024/01/12 07:43:13;;;;;;;;;;;-5.60;99.90;;;;;;5034816;28;20045;-92
2024/01/12 07:46:26;;;;;;;86.18;34.90;;;-5.50;99.90;;;;;;5023069;28;19951;-94
2024/01/12 07:48:56;;;;;;;66.03;35.42;;;-5.50;99.90;;;;;;5040267;28;20088;-93
2024/01/12 07:51:25;;;;;;;82.75;39.08;;;-5.50;99.90;;;;;;5065405;28;20013;-93
2024/01/12 07:54:08;;;;;;;81.93;41.83;;;-5.40;99.90;;;;;;5058621;28;20507;-93
2024/01/12 07:56:34;;;;;;;77.85;37.72;;;-5.50;99.90;;;;;;5022230;28;20109;-93
2024/01/12 07:59:08;;;;;;;84.18;42.80;;;-5.40;99.90;;;;;;5075845;28;20603;-92
2024/01/12 08:01:34;;;;;;;82.65;37.42;;;-5.30;99.90;;;;;;5026549;28;20076;-92
2024/01/12 08:04:00;;;;;;;77.57;40.95;;;-5.40;99.90;;;;;;5033505;28;20052;-93
2024/01/12 08:07:08;;;;;;;77.13;38.42;;;-5.30;99.90;;;;;;5039957;28;20491;-95
2024/01/12 08:09:37;;;;;;;92.60;38.92;;;-5.30;99.90;;;;;;5046000;28;20025;-94
2024/01/12 08:12:03;;;;;;;87.75;38.13;;;-5.30;99.90;;;;;;5032187;28;20025;-93
2024/01/12 08:14:34;;;;;;;87.38;38.35;;;-5.20;99.90;;;;;;5037659;28;20036;-94
2024/01/12 08:17:06;;;;;;;90.72;40.78;;;-5.20;99.90;;;;;;5021093;28;20483;-94
2024/01/12 08:19:35;;;;;;;77.97;37.95;;;-5.20;99.90;;;;;;5036457;28;20029;-93
2024/01/12 08:22:28;;;;;;;81.53;41.55;;;-5.10;99.90;;;;;;5040250;28;20032;-92
2024/01/12 08:24:59;;;;;;;84.82;39.05;;;-5.00;99.90;;;;;;5038570;28;20025;-93
2024/01/12 08:27:31;;;;;;;72.68;36.03;;;-4.90;99.90;;;;;;5035668;28;20283;-93
2024/01/12 08:30:04;;;;;;;75.68;38.00;;;-4.90;99.90;;;;;;5052885;28;20036;-95
2024/01/12 08:32:40;;;;;;;86.85;40.20;;;-4.90;99.90;;;;;;5040751;28;20029;-92
2024/01/12 08:35:28;;;;;;;84.63;37.50;;;-4.70;99.90;;;;;;5041311;28;20048;-94
2024/01/12 08:38:10;;;;;;;74.32;37.30;;;-4.70;99.90;;;;;;5070488;28;20023;-93
2024/01/12 08:40:43;;;;;;;;;;;-4.60;99.90;;;;;;5030307;28;20078;-93
2024/01/12 08:43:11;;;;;;;63.65;31.85;;;-4.60;99.20;;;;;;5037863;28;20047;-93
2024/01/12 08:45:37;;;;;;;64.57;33.40;;;-4.50;99.10;;;;;;5048256;28;20025;-93
2024/01/12 08:48:12;;;;;;;68.88;32.50;;;-4.40;98.50;;;;;;5036466;28;20040;-93
2024/01/12 08:50:50;;;;;;;62.53;31.05;;;-4.30;98.30;;;;;;5057593;28;20049;-94
2024/01/12 08:53:23;;;;;;;62.20;29.13;;;-4.20;98.00;;;;;;5042766;28;20058;-94
2024/01/12 08:55:57;;;;;;;73.72;32.92;;;-4.10;98.10;;;;;;5060491;28;20025;-93
2024/01/12 08:58:24;;;;;;;59.85;31.73;;;-4.10;98.00;;;;;;5058221;28;20050;-93
2024/01/12 09:00:58;;;;;;;59.20;30.50;;;-4.00;97.80;;;;;;5039406;28;20067;-93
2024/01/12 09:03:24;;;;;;;;;;;-4.00;97.80;;;;;;5050636;28;20024;-92
2024/01/12 09:05:54;;;;;;;59.47;30.13;;;-3.90;98.10;;;;;;5043253;28;19920;-93
2024/01/12 09:08:19;;;;;;;63.97;29.98;;;-3.90;97.90;;;;;;5063115;28;20034;-93
2024/01/12 09:10:48;;;;;;;60.35;28.85;;;-3.80;97.90;;;;;;5067855;28;20537;-92
2024/01/12 09:13:20;;;;;;;60.88;29.25;;;-3.80;98.00;;;;;;5037369;28;20033;-93
2024/01/12 09:15:52;;;;;;;57.95;27.00;;;-3.70;98.10;;;;;;5062729;28;20172;-92
2024/01/12 09:18:38;;;;;;;57.88;30.42;;;-3.70;97.40;;;;;;5058057;28;20017;-93
2024/01/12 09:21:14;;;;;;;57.40;28.75;;;-3.60;97.30;;;;;;5036845;28;20029;-94
2024/01/12 09:24:11;;;;;;;57.72;25.92;;;-3.60;97.20;;;;;;5054638;28;20022;-93
2024/01/12 09:29:09;;;;;;;59.03;31.58;;;-3.50;96.90;;;;;;5101336;28;20047;-89
2024/01/12 09:31:35;;;;;;;61.85;32.65;;;-3.40;96.50;;;;;;5099491;28;20020;-89
2024/01/12 09:34:01;;;;;;;56.33;29.33;;;-3.40;96.30;;;;;;5073604;28;20028;-90
2024/01/12 09:36:27;;;;;;;58.40;25.88;;;-3.40;95.60;;;;;;5069187;28;20380;-90
2024/01/12 09:38:56;;;;;;;59.78;29.00;;;-3.30;95.70;;;;;;5083142;28;20031;-91
2024/01/12 09:41:56;;;;;;;63.65;30.10;;;-3.20;96.00;;;;;;5083707;28;20100;-92
2024/01/12 09:44:22;;;;;;;59.97;29.77;;;-3.10;95.20;;;;;;5069467;28;20486;-91
2024/01/12 09:46:53;;;;;;;60.85;29.90;;;-3.10;95.00;;;;;;5099466;28;20027;-91
2024/01/12 09:49:20;;;;;;;53.38;27.75;;;-3.00;94.80;;;;;;5075017;28;20054;-91
2024/01/12 09:51:46;;;;;;;64.88;32.17;;;-2.90;94.90;;;;;;5090040;28;20033;-89
2024/01/12 09:54:12;;;;;;;67.57;30.23;;;-2.70;94.80;;;;;;5095937;28;20037;-92
2024/01/12 09:56:39;;;;;;;56.55;29.85;;;-2.40;93.80;;;;;;5071193;28;20024;-87
2024/01/12 09:59:05;;;;;;;60.42;29.33;;;-2.10;90.80;;;;;;5093988;28;20054;-91
2024/01/12 10:01:32;;;;;;;60.40;30.20;;;-2.10;89.90;;;;;;5088485;28;20030;-89
2024/01/12 10:03:59;;;;;;;59.10;31.58;;;-2.20;90.00;;;;;;5090498;28;20469;-89
2024/01/12 10:06:25;;;;;;;62.28;31.50;;;-2.00;89.80;;;;;;5076968;28;20031;-88
2024/01/12 10:08:51;;;;;;;58.90;29.88;;;-1.90;89.90;;;;;;5089706;28;20029;-83
2024/01/12 10:11:18;;;;;;;57.35;29.98;;;-1.70;88.50;;;;;;5068456;28;20031;-87
2024/01/12 10:13:43;;;;;;;63.42;31.42;;;-1.70;86.90;;;;;;5092605;28;20039;-88
2024/01/12 10:16:09;;;;;;;58.33;28.63;;;-1.60;87.30;;;;;;5088768;28;20028;-89
2024/01/12 10:18:34;;;;;;;57.10;30.33;;;-1.40;86.40;;;;;;5087552;28;20091;-90
2024/01/12 10:21:03;;;;;;;70.80;32.38;;;-1.40;85.80;;;;;;5088551;28;20035;-88
2024/01/12 10:23:29;;;;;;;61.75;29.50;;;-1.40;85.10;;;;;;5098248;28;20031;-91
2024/01/12 10:26:03;;;;;;;61.72;32.45;;;-1.20;85.20;;;;;;5077010;28;20029;-88
2024/01/12 10:28:32;;;;;;;82.45;40.13;;;-1.00;84.40;;;;;;5074943;28;20040;-88
2024/01/12 10:31:07;;;;;;;158.18;58.67;;;-1.00;84.20;;;;;;5075950;28;20038;-87
2024/01/12 10:33:33;;;;;;;137.52;51.92;;;-0.90;83.40;;;;;;5077072;28;20120;-87
2024/01/12 10:39:11;;;;;;;79.72;36.30;;;-0.70;82.80;;;;;;5093352;28;20040;-91
2024/01/12 10:41:40;;;;;;;67.13;31.35;;;-0.60;82.90;;;;;;5090294;28;20031;-89
2024/01/12 10:44:07;;;;;;;55.95;29.42;;;-0.40;81.80;;;;;;5093450;28;20495;-91
2024/01/12 10:46:47;;;;;;;94.30;35.83;;;-0.20;81.30;;;;;;5097540;28;20122;-91
2024/01/12 10:49:20;;;;;;;65.10;34.45;;;-0.10;80.50;;;;;;5074408;28;20557;-90
2024/01/12 10:52:31;;;;;;;58.08;30.77;;;-0.10;79.80;;;;;;5097776;28;20027;-90
2024/01/12 11:08:31;;;;;;;63.38;30.73;;;0.20;79.50;;;;;;4998358;28;20156;-91
2024/01/12 11:10:59;;;;;;;61.47;30.25;;;0.40;79.50;;;;;;4995106;28;20034;-92
2024/01/12 11:13:25;;;;;;;50.42;28.10;;;0.40;79.00;;;;;;5012308;28;20101;-92
2024/01/12 11:16:21;;;;;;;57.67;26.98;;;0.60;78.30;;;;;;5046198;28;20021;-92
2024/01/12 11:31:51;;;;;;;55.47;27.73;;;1.50;72.10;;;;;;5217672;22;20052;-91
2024/01/12 11:34:18;;;;;;;59.35;27.60;;;1.40;72.50;;;;;;5083493;28;20547;-93
2024/01/12 11:36:44;;;;;;;52.88;29.00;;;1.70;72.60;;;;;;5101323;28;20020;-95
2024/01/12 11:39:13;;;;;;;56.92;23.13;;;1.70;71.60;;;;;;5095249;28;20326;-93
2024/01/12 11:41:47;;;;;;;55.63;27.48;;;1.80;70.40;;;;;;5095245;28;20062;-94
2024/01/12 11:44:12;;;;;;;57.28;29.13;;;1.90;71.10;;;;;;5094073;28;20005;-93
2024/01/12 11:46:44;;;;;;;61.67;37.58;;;2.00;70.20;;;;;;5085573;28;20051;-94
2024/01/12 11:52:21;;;;;;;52.10;26.98;;;2.10;71.10;;;;;;5047501;28;20038;-91
2024/01/12 11:54:47;;;;;;;50.58;27.27;;;2.10;69.20;;;;;;5108124;28;20024;-92
2024/01/12 12:01:00;;;;;;;48.95;26.05;;;2.20;67.90;;;;;;5029752;28;20055;-91
2024/01/12 12:03:26;;;;;;;46.58;24.45;;;2.40;67.40;;;;;;5078538;28;20410;-92
2024/01/12 12:05:52;;;;;;;48.70;24.42;;;2.70;67.30;;;;;;5081085;28;20029;-95
2024/01/12 12:08:17;;;;;;;49.97;27.65;;;2.70;65.80;;;;;;5090742;28;20028;-90
2024/01/12 12:10:43;;;;;;;48.35;24.73;;;2.50;67.60;;;;;;5082461;28;20048;-91
2024/01/12 12:13:10;;;;;;;49.35;26.40;;;2.60;67.20;;;;;;5078496;28;20033;-91
2024/01/12 12:15:36;;;;;;;47.35;25.52;;;2.60;67.70;;;;;;5072470;28;20084;-92
2024/01/12 12:18:02;;;;;;;43.20;23.75;;;2.70;67.20;;;;;;5063481;28;20052;-90
2024/01/12 12:20:28;;;;;;;48.30;24.58;;;2.90;66.80;;;;;;5082885;28;20131;-91
2024/01/12 12:22:53;;;;;;;33.67;19.75;;;2.90;66.10;;;;;;5089832;28;20031;-93
2024/01/12 12:25:19;;;;;;;42.13;23.33;;;2.90;66.00;;;;;;5093560;28;20040;-93
2024/01/12 12:27:46;;;;;;;37.58;19.48;;;3.10;66.30;;;;;;5092373;28;20055;-94
2024/01/12 12:30:15;;;;;;;41.75;22.20;;;3.30;65.00;;;;;;5086786;28;20031;-90
2024/01/12 12:32:42;;;;;;;46.38;23.05;;;3.70;63.60;;;;;;5080623;28;20033;-92
2024/01/12 12:35:12;;;;;;;43.20;23.27;;;4.10;61.80;;;;;;5080334;28;20074;-91
2024/01/12 12:37:37;;;;;;;39.83;22.02;;;4.40;60.10;;;;;;5100330;28;20027;-91
2024/01/12 12:40:07;;;;;;;40.17;21.35;;;4.20;59.50;;;;;;5083205;28;20024;-91
2024/01/12 12:42:33;;;;;;;33.90;18.35;;;4.70;58.80;;;;;;5087933;28;20029;-93
2024/01/12 12:44:59;;;;;;;39.33;19.92;;;4.70;58.30;;;;;;5093584;28;20099;-91
2024/01/12 12:47:25;;;;;;;25.77;13.95;;;5.10;57.80;;;;;;5086528;28;20550;-92
2024/01/12 12:50:09;;;;;;;20.65;11.63;;;5.00;57.50;;;;;;5086482;28;20035;-91
2024/01/12 12:52:35;;;;;;;23.92;12.18;;;4.40;60.40;;;;;;5085712;28;20556;-95
2024/01/12 12:55:02;;;;;;;32.75;14.05;;;4.20;62.60;;;;;;5085370;28;20032;-92
2024/01/12 12:57:38;;;;;;;25.60;12.45;;;4.00;63.60;;;;;;5088350;28;20020;-92
2024/01/12 13:00:07;;;;;;;22.20;14.57;;;3.50;65.60;;;;;;5066605;28;20086;-93
2024/01/12 13:02:37;;;;;;;26.77;13.85;;;2.70;68.90;;;;;;5080075;28;20012;-90
2024/01/12 13:05:03;;;;;;;28.08;14.48;;;2.30;70.90;;;;;;5079436;28;20040;-92
2024/01/12 13:07:32;;;;;;;27.73;14.95;;;2.00;72.70;;;;;;5083353;28;20021;-91
2024/01/12 13:09:57;;;;;;;27.40;15.95;;;1.60;75.10;;;;;;5087221;28;20039;-92
2024/01/12 13:12:23;;;;;;;24.15;13.13;;;1.50;76.70;;;;;;5080538;28;20016;-92
2024/01/12 13:14:49;;;;;;;27.30;14.45;;;1.40;77.50;;;;;;5076059;28;20028;-91
2024/01/12 13:17:20;;;;;;;29.83;14.57;;;1.40;77.00;;;;;;5074083;28;20020;-90
2024/01/12 13:19:46;;;;;;;28.55;15.95;;;1.20;78.20;;;;;;5073035;28;20079;-92
2024/01/12 13:22:12;;;;;;;22.65;13.45;;;1.20;78.20;;;;;;5080914;28;20036;-93
2024/01/12 13:24:38;;;;;;;25.15;15.23;;;1.30;78.60;;;;;;5073915;28;20486;-92
2024/01/12 13:27:07;;;;;;;27.17;17.73;;;1.50;77.90;;;;;;5072545;28;20032;-91
2024/01/12 13:29:32;;;;;;;26.95;14.68;;;1.60;77.40;;;;;;5070380;28;20085;-90
2024/01/12 13:31:58;;;;;;;21.38;12.00;;;1.80;76.80;;;;;;5084074;28;20044;-94
2024/01/12 13:34:24;;;;;;;22.13;13.50;;;1.90;74.80;;;;;;5072146;28;20029;-93
2024/01/12 13:36:50;;;;;;;24.65;13.82;;;1.70;76.30;;;;;;5078374;28;20025;-93